createdAt,value
2024-02-13T00:01:35.384Z,8.87
2024-02-13T00:04:04.653Z,8.86
2024-02-13T00:06:33.404Z,8.84
2024-02-13T00:09:01.876Z,8.81
2024-02-13T00:11:30.074Z,8.78
2024-02-13T00:13:58.299Z,8.76
2024-02-13T00:16:26.985Z,8.76
2024-02-13T00:19:02.988Z,8.75
2024-02-13T00:21:34.806Z,8.76
2024-02-13T00:24:03.175Z,8.77
2024-02-13T00:26:31.116Z,8.77
2024-02-13T00:29:01.237Z,8.77
2024-02-13T00:31:29.612Z,8.78
2024-02-13T00:33:57.748Z,8.79
2024-02-13T00:36:25.761Z,8.81
2024-02-13T00:38:53.877Z,8.80
2024-02-13T00:41:22.373Z,8.82
2024-02-13T00:43:51.189Z,8.82
2024-02-13T00:46:19.541Z,8.83
2024-02-13T00:48:48.493Z,8.85
2024-02-13T00:51:16.955Z,8.87
2024-02-13T00:53:44.976Z,8.86
2024-02-13T00:56:13.206Z,8.86
2024-02-13T00:58:45.211Z,8.86
2024-02-13T01:01:14.232Z,8.87
2024-02-13T01:03:43.004Z,8.86
2024-02-13T01:06:11.574Z,8.86
2024-02-13T01:08:39.798Z,8.85
2024-02-13T01:11:08.723Z,8.85
2024-02-13T01:13:37.033Z,8.86
2024-02-13T01:16:05.390Z,8.87
2024-02-13T01:18:33.628Z,8.86
2024-02-13T01:21:04.113Z,8.85
2024-02-13T01:23:32.567Z,8.83
2024-02-13T01:26:00.908Z,8.82
2024-02-13T01:28:29.226Z,8.83
2024-02-13T01:30:59.712Z,8.84
2024-02-13T01:33:28.287Z,8.85
2024-02-13T01:35:57.640Z,8.84
2024-02-13T01:38:29.333Z,8.84
2024-02-13T01:40:57.527Z,8.85
2024-02-13T01:43:26.445Z,8.87
2024-02-13T01:45:56.980Z,8.87
2024-02-13T01:48:26.627Z,8.88
2024-02-13T01:50:57.517Z,8.89
2024-02-13T01:53:28.323Z,8.89
2024-02-13T01:56:02.513Z,8.88
2024-02-13T01:58:32.370Z,8.87
2024-02-13T02:01:02.603Z,8.90
2024-02-13T02:03:36.266Z,8.91
2024-02-13T02:06:05.332Z,8.92
2024-02-13T02:08:34.353Z,8.95
2024-02-13T02:11:03.334Z,8.98
2024-02-13T02:13:32.731Z,8.99
2024-02-13T02:16:00.799Z,9.00
2024-02-13T02:18:30.418Z,8.99
2024-02-13T02:20:58.976Z,8.98
2024-02-13T02:23:27.943Z,8.96
2024-02-13T02:25:56.342Z,8.94
2024-02-13T02:28:25.955Z,8.92
2024-02-13T02:30:55.143Z,8.91
2024-02-13T02:33:23.344Z,8.87
2024-02-13T02:35:52.058Z,8.83
2024-02-13T02:38:20.197Z,8.82
2024-02-13T02:40:49.157Z,8.82
2024-02-13T02:43:18.494Z,8.82
2024-02-13T02:45:46.789Z,8.82
2024-02-13T02:48:16.194Z,8.83
2024-02-13T02:50:44.493Z,8.81
2024-02-13T02:53:12.672Z,8.80
2024-02-13T02:55:42.040Z,8.81
2024-02-13T02:58:10.344Z,8.82
2024-02-13T03:00:38.531Z,8.82
2024-02-13T03:03:06.746Z,8.83
2024-02-13T03:05:35.198Z,8.83
2024-02-13T03:08:03.616Z,8.83
2024-02-13T03:10:31.595Z,8.85
2024-02-13T03:12:59.771Z,8.85
2024-02-13T03:15:28.533Z,8.85
2024-02-13T03:17:56.908Z,8.84
2024-02-13T03:20:25.389Z,8.83
2024-02-13T03:22:53.614Z,8.82
2024-02-13T03:25:21.792Z,8.84
2024-02-13T03:27:49.814Z,8.84
2024-02-13T03:30:17.904Z,8.83
2024-02-13T03:32:46.477Z,8.83
2024-02-13T03:35:14.756Z,8.83
2024-02-13T03:37:43.009Z,8.83
2024-02-13T03:40:11.542Z,8.83
2024-02-13T03:42:39.587Z,8.83
2024-02-13T03:45:08.497Z,8.86
2024-02-13T03:47:36.586Z,8.86
2024-02-13T03:50:05.302Z,8.86
2024-02-13T03:52:36.971Z,8.86
2024-02-13T03:55:07.505Z,8.84
2024-02-13T03:57:36.889Z,8.85
2024-02-13T04:00:08.338Z,8.83
2024-02-13T04:02:36.693Z,8.83
2024-02-13T04:05:06.398Z,8.83
2024-02-13T04:07:36.767Z,8.84
2024-02-13T04:10:05.282Z,8.86
2024-02-13T04:12:33.397Z,8.88
2024-02-13T04:15:01.725Z,8.87
2024-02-13T04:17:30.247Z,8.87
2024-02-13T04:19:58.248Z,8.85
2024-02-13T04:22:26.683Z,8.84
2024-02-13T04:24:54.676Z,8.82
2024-02-13T04:27:24.312Z,8.79
2024-02-13T04:29:52.622Z,8.78
2024-02-13T04:32:21.130Z,8.76
2024-02-13T04:34:49.289Z,8.74
2024-02-13T04:37:17.270Z,8.74
2024-02-13T04:39:45.577Z,8.74
2024-02-13T04:42:13.530Z,8.72
2024-02-13T04:44:41.977Z,8.72
2024-02-13T04:47:10.208Z,8.72
2024-02-13T04:49:38.305Z,8.72
2024-02-13T04:52:06.741Z,8.71
2024-02-13T04:54:35.033Z,8.70
2024-02-13T04:57:02.968Z,8.70
2024-02-13T04:59:38.804Z,8.70
2024-02-13T05:02:07.326Z,8.69
2024-02-13T05:04:54.198Z,8.70
2024-02-13T05:07:22.330Z,8.72
2024-02-13T05:09:50.766Z,8.75
2024-02-13T05:12:18.769Z,8.77
2024-02-13T05:14:48.690Z,8.76
2024-02-13T05:17:17.158Z,8.75
2024-02-13T05:19:45.160Z,8.76
2024-02-13T05:22:14.746Z,8.77
2024-02-13T05:24:42.821Z,8.76
2024-02-13T05:27:11.850Z,8.77
2024-02-13T05:29:41.308Z,8.77
2024-02-13T05:32:10.113Z,8.77
2024-02-13T05:34:38.558Z,8.78
2024-02-13T05:37:07.202Z,8.81
2024-02-13T05:39:35.522Z,8.83
2024-02-13T05:42:04.065Z,8.87
2024-02-13T05:44:32.443Z,8.87
2024-02-13T05:47:03.690Z,8.93
2024-02-13T05:49:33.958Z,8.96
2024-02-13T05:52:02.296Z,8.94
2024-02-13T05:54:30.421Z,8.92
2024-02-13T05:56:58.559Z,8.90
2024-02-13T05:59:30.961Z,8.88
2024-02-13T06:01:59.608Z,8.89
2024-02-13T06:04:27.882Z,8.96
2024-02-13T06:06:56.764Z,8.98
2024-02-13T06:09:25.964Z,8.99
2024-02-13T06:11:54.131Z,8.99
2024-02-13T06:14:22.358Z,8.99
2024-02-13T06:16:50.424Z,8.99
2024-02-13T06:19:18.979Z,9.00
2024-02-13T06:21:47.012Z,8.99
2024-02-13T06:24:15.096Z,8.97
2024-02-13T06:26:44.244Z,8.95
2024-02-13T06:29:12.448Z,8.94
2024-02-13T06:31:41.395Z,8.92
2024-02-13T06:34:09.513Z,8.91
2024-02-13T06:36:37.813Z,8.91
2024-02-13T06:39:06.381Z,8.91
2024-02-13T06:41:34.610Z,8.90
2024-02-13T06:44:04.554Z,8.89
2024-02-13T06:46:33.183Z,8.89
2024-02-13T06:49:02.586Z,8.85
2024-02-13T06:51:30.844Z,8.83
2024-02-13T06:54:02.069Z,8.83
2024-02-13T06:56:30.296Z,8.82
2024-02-13T06:58:58.425Z,8.81
2024-02-13T07:01:26.600Z,8.80
2024-02-13T07:03:54.751Z,8.80
2024-02-13T07:06:36.165Z,8.80
2024-02-13T07:09:12.787Z,8.80
2024-02-13T07:11:41.201Z,8.80
2024-02-13T07:14:10.062Z,8.82
2024-02-13T07:16:41.584Z,8.83
2024-02-13T07:19:11.321Z,8.83
2024-02-13T07:21:39.437Z,8.83
2024-02-13T07:24:08.390Z,8.83
2024-02-13T07:26:37.041Z,8.83
2024-02-13T07:29:05.434Z,8.84
2024-02-13T07:31:36.794Z,8.83
2024-02-13T07:34:05.242Z,8.84
2024-02-13T07:36:33.533Z,8.85
2024-02-13T07:39:01.866Z,8.88
2024-02-13T07:41:30.065Z,8.90
2024-02-13T07:43:58.242Z,8.89
2024-02-13T07:46:26.605Z,8.92
2024-02-13T07:48:56.958Z,8.95
2024-02-13T07:51:25.499Z,8.98
2024-02-13T07:53:54.425Z,9.00
2024-02-13T07:56:29.949Z,9.02
2024-02-13T07:58:58.629Z,9.03
2024-02-13T08:01:28.135Z,9.01
2024-02-13T08:03:56.521Z,8.99
2024-02-13T08:06:24.866Z,8.97
2024-02-13T08:08:53.479Z,8.99
2024-02-13T08:11:23.054Z,8.99
2024-02-13T08:13:51.640Z,8.98
2024-02-13T08:16:21.011Z,8.98
2024-02-13T08:18:52.052Z,9.01
2024-02-13T08:21:20.447Z,9.03
2024-02-13T08:23:48.792Z,9.04
2024-02-13T08:26:16.854Z,9.05
2024-02-13T08:28:45.562Z,9.01
2024-02-13T08:31:14.684Z,9.00
2024-02-13T08:33:43.139Z,9.02
2024-02-13T08:36:12.685Z,9.05
2024-02-13T08:38:43.138Z,9.07
2024-02-13T08:41:14.944Z,9.03
2024-02-13T08:43:44.216Z,9.03
2024-02-13T08:46:14.621Z,9.06
2024-02-13T08:48:42.955Z,9.08
2024-02-13T08:51:12.461Z,9.11
2024-02-13T08:53:40.903Z,9.15
2024-02-13T08:56:09.761Z,9.12
2024-02-13T08:58:39.079Z,9.08
2024-02-13T09:01:08.590Z,9.05
2024-02-13T09:03:40.689Z,9.03
2024-02-13T09:06:08.934Z,8.96
2024-02-13T09:08:41.386Z,8.93
2024-02-13T09:11:14.664Z,8.94
2024-02-13T09:13:42.958Z,8.94
2024-02-13T09:16:13.772Z,8.94
2024-02-13T09:18:43.078Z,8.94
2024-02-13T09:21:11.838Z,8.95
2024-02-13T09:23:40.380Z,8.95
2024-02-13T09:26:08.652Z,8.98
2024-02-13T09:28:37.074Z,8.99
2024-02-13T09:31:05.798Z,8.98
2024-02-13T09:33:34.110Z,9.00
2024-02-13T09:36:06.718Z,9.02
2024-02-13T09:38:37.276Z,9.04
2024-02-13T09:41:05.878Z,9.07
2024-02-13T09:43:34.041Z,9.09
2024-02-13T09:46:03.170Z,9.16
2024-02-13T09:48:34.864Z,9.24
2024-02-13T09:51:09.356Z,9.30
2024-02-13T09:53:41.859Z,9.33
2024-02-13T09:56:15.351Z,9.34
2024-02-13T09:58:45.711Z,9.34
2024-02-13T10:01:15.090Z,9.39
2024-02-13T10:03:45.062Z,9.48
2024-02-13T10:06:13.948Z,9.48
2024-02-13T10:08:43.061Z,9.49
2024-02-13T10:11:14.532Z,9.55
2024-02-13T10:13:47.153Z,9.56
2024-02-13T10:16:21.383Z,9.57
2024-02-13T10:18:59.613Z,9.57
2024-02-13T10:21:30.823Z,9.55
2024-02-13T10:24:07.919Z,9.56
2024-02-13T10:26:37.882Z,9.60
2024-02-13T10:29:06.289Z,9.60
2024-02-13T10:31:39.031Z,9.57
2024-02-13T10:34:10.684Z,9.59
2024-02-13T10:36:44.284Z,9.62
2024-02-13T10:39:20.277Z,9.62
2024-02-13T10:41:50.530Z,9.64
2024-02-13T10:44:24.169Z,9.64
2024-02-13T10:46:57.776Z,9.58
2024-02-13T10:49:51.228Z,9.59
2024-02-13T10:52:21.965Z,9.64
2024-02-13T10:54:50.997Z,9.60
2024-02-13T10:57:19.636Z,9.59
2024-02-13T10:59:49.168Z,9.63
2024-02-13T11:02:20.414Z,9.62
2024-02-13T11:04:50.227Z,9.61
2024-02-13T11:07:19.398Z,9.58
2024-02-13T11:09:47.779Z,9.60
2024-02-13T11:12:16.335Z,9.60
2024-02-13T11:14:44.784Z,9.64
2024-02-13T11:17:14.354Z,9.70
2024-02-13T11:19:50.638Z,9.75
2024-02-13T11:22:33.783Z,9.80
2024-02-13T11:25:12.279Z,9.88
2024-02-13T11:27:45.494Z,9.91
2024-02-13T11:30:27.456Z,9.94
2024-02-13T11:33:02.647Z,9.91
2024-02-13T11:35:40.924Z,9.91
2024-02-13T11:38:21.579Z,9.94
2024-02-13T11:40:56.240Z,9.95
2024-02-13T11:43:29.010Z,9.98
2024-02-13T11:46:01.564Z,10.02
2024-02-13T11:48:32.902Z,10.03
2024-02-13T11:51:04.704Z,10.05
2024-02-13T11:53:33.607Z,10.05
2024-02-13T11:56:01.748Z,10.07
2024-02-13T11:58:32.597Z,10.09
2024-02-13T12:01:06.274Z,10.17
2024-02-13T12:03:36.263Z,10.20
2024-02-13T12:06:06.944Z,10.24
2024-02-13T12:08:36.897Z,10.27
2024-02-13T12:11:05.932Z,10.26
2024-02-13T12:13:35.651Z,10.29
2024-02-13T12:16:05.624Z,10.33
2024-02-13T12:18:34.436Z,10.42
2024-02-13T12:21:03.165Z,10.49
2024-02-13T12:23:31.575Z,10.46
2024-02-13T12:26:07.572Z,10.43
2024-02-13T12:28:37.505Z,10.39
2024-02-13T12:31:09.348Z,10.34
2024-02-13T12:33:41.381Z,10.33
2024-02-13T12:36:20.105Z,10.34
2024-02-13T12:38:48.782Z,10.39
2024-02-13T12:41:16.879Z,10.35
2024-02-13T12:43:49.641Z,10.34
2024-02-13T12:46:18.444Z,10.32
2024-02-13T12:48:46.487Z,10.33
2024-02-13T12:51:17.038Z,10.32
2024-02-13T12:53:47.155Z,10.33
2024-02-13T12:56:16.411Z,10.34
2024-02-13T12:58:45.122Z,10.33
2024-02-13T13:01:16.905Z,10.36
2024-02-13T13:03:48.455Z,10.39
2024-02-13T13:06:20.566Z,10.40
2024-02-13T13:08:56.784Z,10.41
2024-02-13T13:11:26.351Z,10.44
2024-02-13T13:13:56.306Z,10.45
2024-02-13T13:16:28.323Z,10.48
2024-02-13T13:18:58.794Z,10.49
2024-02-13T13:21:27.339Z,10.52
2024-02-13T13:23:56.402Z,10.64
2024-02-13T13:26:33.568Z,10.79
2024-02-13T13:29:05.679Z,10.90
2024-02-13T13:31:42.362Z,11.00
2024-02-13T13:34:12.489Z,11.11
2024-02-13T13:36:43.380Z,11.12
2024-02-13T13:39:11.448Z,11.17
2024-02-13T13:41:42.790Z,11.18
2024-02-13T13:44:15.162Z,11.21
2024-02-13T13:46:43.329Z,11.27
2024-02-13T13:49:13.151Z,11.35
2024-02-13T13:51:41.530Z,11.45
2024-02-13T13:54:11.236Z,11.46
2024-02-13T13:56:40.861Z,11.43
2024-02-13T13:59:09.032Z,11.45
2024-02-13T14:01:37.420Z,11.48
2024-02-13T14:04:06.234Z,11.43
2024-02-13T14:06:36.010Z,11.33
2024-02-13T14:09:04.264Z,11.23
2024-02-13T14:11:33.550Z,11.14
2024-02-13T14:14:01.929Z,11.11
2024-02-13T14:16:30.733Z,11.07
2024-02-13T14:18:59.736Z,10.93
2024-02-13T14:21:29.540Z,10.83
2024-02-13T14:23:59.605Z,10.76
2024-02-13T14:26:30.050Z,10.69
2024-02-13T14:28:58.086Z,10.68
2024-02-13T14:31:28.294Z,10.64
2024-02-13T14:33:56.509Z,10.64
2024-02-13T14:36:25.410Z,10.63
2024-02-13T14:38:53.575Z,10.55
2024-02-13T14:41:22.686Z,10.48
2024-02-13T14:43:53.915Z,10.44
2024-02-13T14:46:21.887Z,10.36
2024-02-13T14:48:49.983Z,10.25
2024-02-13T14:51:20.096Z,10.17
2024-02-13T14:53:50.161Z,10.12
2024-02-13T14:56:19.112Z,10.05
2024-02-13T14:58:47.304Z,9.94
2024-02-13T15:01:18.132Z,9.84
2024-02-13T15:03:48.261Z,9.80
2024-02-13T15:06:18.535Z,9.76
2024-02-13T15:08:52.321Z,9.75
2024-02-13T15:11:20.538Z,9.71
2024-02-13T15:13:48.620Z,9.66
2024-02-13T15:16:19.485Z,9.62
2024-02-13T15:18:49.901Z,9.60
2024-02-13T15:21:18.184Z,9.54
2024-02-13T15:23:47.193Z,9.47
2024-02-13T15:26:15.232Z,9.43
2024-02-13T15:28:43.674Z,9.39
2024-02-13T15:31:13.050Z,9.33
2024-02-13T15:33:41.530Z,9.27
2024-02-13T15:36:32.617Z,9.21
2024-02-13T15:39:19.786Z,9.16
2024-02-13T15:42:08.785Z,9.12
2024-02-13T15:44:55.572Z,9.09
2024-02-13T15:47:24.223Z,9.07
2024-02-13T15:49:53.712Z,9.07
2024-02-13T15:52:22.623Z,9.04
2024-02-13T15:54:51.991Z,9.00
2024-02-13T15:57:20.258Z,8.95
2024-02-13T15:59:48.745Z,8.91
2024-02-13T16:02:19.141Z,8.87
2024-02-13T16:04:48.572Z,8.85
2024-02-13T16:07:20.468Z,8.81
2024-02-13T16:09:49.211Z,8.78
2024-02-13T16:12:18.387Z,8.76
2024-02-13T16:14:47.603Z,8.72
2024-02-13T16:17:15.718Z,8.69
2024-02-13T16:19:44.062Z,8.68
2024-02-13T16:22:12.395Z,8.67
2024-02-13T16:24:40.689Z,8.63
2024-02-13T16:27:08.889Z,8.62
2024-02-13T16:29:37.045Z,8.60
2024-02-13T16:32:05.928Z,8.55
2024-02-13T16:34:34.635Z,8.53
2024-02-13T16:37:03.433Z,8.51
2024-02-13T16:39:32.146Z,8.48
2024-02-13T16:42:00.599Z,8.46
2024-02-13T16:44:28.818Z,8.42
2024-02-13T16:46:58.987Z,8.39
2024-02-13T16:49:27.266Z,8.34
2024-02-13T16:51:55.537Z,8.32
2024-02-13T16:54:23.541Z,8.29
2024-02-13T16:56:52.192Z,8.27
2024-02-13T16:59:20.674Z,8.26
2024-02-13T17:01:49.231Z,8.25
2024-02-13T17:04:17.577Z,8.26
2024-02-13T17:06:46.775Z,8.24
2024-02-13T17:09:16.698Z,8.22
2024-02-13T17:11:45.648Z,8.18
2024-02-13T17:14:14.428Z,8.17
2024-02-13T17:16:42.691Z,8.16
2024-02-13T17:19:14.965Z,8.16
2024-02-13T17:21:44.229Z,8.17
2024-02-13T17:24:12.429Z,8.15
2024-02-13T17:26:40.695Z,8.13
2024-02-13T17:29:09.964Z,8.13
2024-02-13T17:31:38.291Z,8.13
2024-02-13T17:34:06.637Z,8.12
2024-02-13T17:36:35.100Z,8.11
2024-02-13T17:39:06.371Z,8.08
2024-02-13T17:41:34.641Z,8.07
2024-02-13T17:44:02.905Z,8.03
2024-02-13T17:46:31.041Z,8.02
2024-02-13T17:48:59.208Z,8.00
2024-02-13T17:51:27.579Z,7.96
2024-02-13T17:53:56.131Z,7.94
2024-02-13T17:56:25.233Z,7.93
2024-02-13T17:58:53.439Z,7.91
2024-02-13T18:01:21.687Z,7.88
2024-02-13T18:03:49.803Z,7.86
2024-02-13T18:06:18.220Z,7.81
2024-02-13T18:08:46.388Z,7.79
2024-02-13T18:11:14.512Z,7.76
2024-02-13T18:13:42.809Z,7.75
2024-02-13T18:16:11.673Z,7.72
2024-02-13T18:18:39.822Z,7.71
2024-02-13T18:21:08.655Z,7.68
2024-02-13T18:23:36.882Z,7.63
2024-02-13T18:26:06.007Z,7.61
2024-02-13T18:28:33.949Z,7.61
2024-02-13T18:31:05.603Z,7.61
2024-02-13T18:33:33.926Z,7.61
2024-02-13T18:36:03.027Z,7.62
2024-02-13T18:38:31.213Z,7.62
2024-02-13T18:41:00.074Z,7.62
2024-02-13T18:43:29.200Z,7.61
2024-02-13T18:45:57.327Z,7.61
2024-02-13T18:48:26.637Z,7.62
2024-02-13T18:50:54.787Z,7.64
2024-02-13T18:53:28.317Z,7.64
2024-02-13T18:55:59.237Z,7.64
2024-02-13T18:58:29.838Z,7.65
2024-02-13T19:00:59.355Z,7.68
2024-02-13T19:03:27.393Z,7.68
2024-02-13T19:05:56.501Z,7.68
2024-02-13T19:08:27.011Z,7.69
2024-02-13T19:10:57.493Z,7.70
2024-02-13T19:13:27.048Z,7.71
2024-02-13T19:15:55.620Z,7.72
2024-02-13T19:18:24.395Z,7.70
2024-02-13T19:20:56.730Z,7.71
2024-02-13T19:23:25.683Z,7.72
2024-02-13T19:25:54.688Z,7.73
2024-02-13T19:28:24.531Z,7.74
2024-02-13T19:30:53.654Z,7.75
2024-02-13T19:33:22.703Z,7.76
2024-02-13T19:35:52.878Z,7.75
2024-02-13T19:38:23.491Z,7.74
2024-02-13T19:40:51.583Z,7.75
2024-02-13T19:43:19.583Z,7.75
2024-02-13T19:45:48.256Z,7.74
2024-02-13T19:48:17.511Z,7.75
2024-02-13T19:50:48.430Z,7.74
2024-02-13T19:53:17.095Z,7.71
2024-02-13T19:55:45.294Z,7.72
2024-02-13T19:58:14.591Z,7.72
2024-02-13T20:00:43.266Z,7.70
2024-02-13T20:03:12.944Z,7.70
2024-02-13T20:05:43.394Z,7.70
2024-02-13T20:08:12.553Z,7.69
2024-02-13T20:10:40.951Z,7.67
2024-02-13T20:13:09.031Z,7.65
2024-02-13T20:15:38.288Z,7.62
2024-02-13T20:18:07.106Z,7.60
2024-02-13T20:20:35.814Z,7.60
2024-02-13T20:23:04.101Z,7.58
2024-02-13T20:25:32.536Z,7.55
2024-02-13T20:28:01.223Z,7.51
2024-02-13T20:30:32.939Z,7.48
2024-02-13T20:33:01.387Z,7.46
2024-02-13T20:35:29.566Z,7.44
2024-02-13T20:37:58.893Z,7.43
2024-02-13T20:40:26.826Z,7.40
2024-02-13T20:42:55.371Z,7.39
2024-02-13T20:45:23.915Z,7.38
2024-02-13T20:47:55.523Z,7.39
2024-02-13T20:50:23.924Z,7.40
2024-02-13T20:52:52.027Z,7.40
2024-02-13T20:55:23.961Z,7.38
2024-02-13T20:57:56.777Z,7.34
2024-02-13T21:00:25.577Z,7.32
2024-02-13T21:02:53.654Z,7.32
2024-02-13T21:05:26.023Z,7.30
2024-02-13T21:07:54.321Z,7.26
2024-02-13T21:10:23.783Z,7.23
2024-02-13T21:12:52.050Z,7.22
2024-02-13T21:15:20.273Z,7.17
2024-02-13T21:17:49.515Z,7.12
2024-02-13T21:20:20.614Z,7.11
2024-02-13T21:23:09.601Z,7.10
2024-02-13T21:25:37.952Z,7.08
2024-02-13T21:28:06.554Z,7.04
2024-02-13T21:30:35.687Z,7.02
2024-02-13T21:33:05.181Z,7.00
2024-02-13T21:35:34.387Z,6.98
2024-02-13T21:38:05.342Z,6.94
2024-02-13T21:40:36.056Z,6.94
2024-02-13T21:43:06.311Z,6.91
2024-02-13T21:45:34.592Z,6.88
2024-02-13T21:48:03.268Z,6.88
2024-02-13T21:50:31.507Z,6.88
2024-02-13T21:52:59.695Z,6.85
2024-02-13T21:55:27.899Z,6.83
2024-02-13T21:57:55.796Z,6.81
2024-02-13T22:00:24.260Z,6.79
2024-02-13T22:02:52.478Z,6.80
2024-02-13T22:05:21.254Z,6.80
2024-02-13T22:07:49.411Z,6.78
2024-02-13T22:10:17.559Z,6.77
2024-02-13T22:12:47.307Z,6.72
2024-02-13T22:15:19.606Z,6.68
2024-02-13T22:17:48.549Z,6.66
2024-02-13T22:20:17.373Z,6.64
2024-02-13T22:22:45.543Z,6.62
2024-02-13T22:25:15.122Z,6.63
2024-02-13T22:27:43.794Z,6.63
2024-02-13T22:30:13.960Z,6.60
2024-02-13T22:32:44.319Z,6.57
2024-02-13T22:35:13.225Z,6.56
2024-02-13T22:37:42.404Z,6.53
2024-02-13T22:40:11.106Z,6.50
2024-02-13T22:42:39.068Z,6.46
2024-02-13T22:45:08.372Z,6.43
2024-02-13T22:47:40.344Z,6.39
2024-02-13T22:50:09.214Z,6.34
2024-02-13T22:52:37.196Z,6.30
2024-02-13T22:55:05.416Z,6.29
2024-02-13T22:57:34.335Z,6.27
2024-02-13T23:00:02.542Z,6.24
2024-02-13T23:02:32.136Z,6.20
2024-02-13T23:05:01.168Z,6.18
2024-02-13T23:07:29.203Z,6.15
2024-02-13T23:09:57.497Z,6.12
2024-02-13T23:12:25.517Z,6.12
2024-02-13T23:14:53.544Z,6.10
2024-02-13T23:17:22.111Z,6.10
2024-02-13T23:19:50.161Z,6.08
2024-02-13T23:22:18.124Z,6.09
2024-02-13T23:24:46.432Z,6.09
2024-02-13T23:27:15.154Z,6.11
2024-02-13T23:29:44.537Z,6.09
2024-02-13T23:32:14.462Z,6.09
2024-02-13T23:34:42.666Z,6.09
2024-02-13T23:37:10.728Z,6.10
2024-02-13T23:39:38.718Z,6.11
2024-02-13T23:42:06.772Z,6.12
2024-02-13T23:44:34.987Z,6.11
2024-02-13T23:47:03.130Z,6.09
2024-02-13T23:49:31.706Z,6.10
2024-02-13T23:51:59.822Z,6.07
2024-02-13T23:54:28.043Z,6.02
2024-02-13T23:56:56.611Z,6.01
2024-02-13T23:59:24.671Z,5.99
